createdAt,value
2024-02-16T00:00:09.344Z,463.00
2024-02-16T00:01:09.322Z,459.00
2024-02-16T00:02:09.268Z,463.00
2024-02-16T00:03:09.312Z,465.00
2024-02-16T00:04:09.328Z,465.00
2024-02-16T00:05:09.538Z,462.00
2024-02-16T00:06:09.290Z,460.00
2024-02-16T00:07:09.341Z,453.00
2024-02-16T00:08:09.270Z,446.00
2024-02-16T00:09:09.254Z,446.00
2024-02-16T00:10:09.316Z,453.00
2024-02-16T00:11:09.253Z,460.00
2024-02-16T00:12:09.262Z,466.00
2024-02-16T00:13:09.261Z,454.00
2024-02-16T00:14:09.258Z,455.00
2024-02-16T00:15:09.357Z,456.00
2024-02-16T00:16:09.287Z,455.00
2024-02-16T00:17:09.298Z,451.00
2024-02-16T00:18:09.368Z,454.00
2024-02-16T00:19:09.380Z,458.00
2024-02-16T00:20:09.391Z,457.00
2024-02-16T00:21:09.431Z,459.00
2024-02-16T00:22:09.394Z,459.00
2024-02-16T00:23:09.372Z,462.00
2024-02-16T00:24:09.357Z,461.00
2024-02-16T00:25:09.388Z,467.00
2024-02-16T00:26:09.493Z,464.00
2024-02-16T00:27:09.595Z,456.00
2024-02-16T00:28:09.505Z,451.00
2024-02-16T00:29:09.533Z,447.00
2024-02-16T00:30:09.679Z,453.00
2024-02-16T00:31:09.769Z,452.00
2024-02-16T00:32:09.696Z,446.00
2024-02-16T00:33:09.918Z,444.00
2024-02-16T00:34:10.040Z,448.00
2024-02-16T00:35:10.068Z,459.00
2024-02-16T00:36:10.226Z,455.00
2024-02-16T00:37:10.041Z,459.00
2024-02-16T00:38:10.198Z,458.00
2024-02-16T00:39:10.194Z,459.00
2024-02-16T00:40:10.339Z,462.00
2024-02-16T00:41:10.276Z,458.00
2024-02-16T00:42:10.416Z,458.00
2024-02-16T00:43:10.384Z,458.00
2024-02-16T00:44:10.385Z,460.00
2024-02-16T00:45:10.630Z,459.00
2024-02-16T00:46:10.505Z,457.00
2024-02-16T00:47:10.501Z,457.00
2024-02-16T00:48:10.583Z,461.00
2024-02-16T00:49:10.665Z,461.00
2024-02-16T00:50:10.880Z,458.00
2024-02-16T00:51:10.812Z,450.00
2024-02-16T00:52:10.756Z,453.00
2024-02-16T00:53:10.844Z,453.00
2024-02-16T00:54:10.966Z,442.00
2024-02-16T00:55:10.992Z,449.00
2024-02-16T00:56:10.987Z,449.00
2024-02-16T00:57:11.136Z,440.00
2024-02-16T00:58:11.095Z,432.00
2024-02-16T00:59:11.107Z,432.00
2024-02-16T01:00:11.188Z,440.00
2024-02-16T01:01:11.125Z,438.00
2024-02-16T01:02:11.222Z,437.00
2024-02-16T01:03:11.256Z,442.00
2024-02-16T01:04:11.304Z,453.00
2024-02-16T01:05:11.789Z,433.00
2024-02-16T01:06:11.350Z,444.00
2024-02-16T01:07:11.416Z,446.00
2024-02-16T01:08:11.408Z,445.00
2024-02-16T01:09:11.419Z,452.00
2024-02-16T01:10:11.442Z,440.00
2024-02-16T01:11:11.525Z,439.00
2024-02-16T01:12:11.546Z,450.00
2024-02-16T01:13:11.487Z,447.00
2024-02-16T01:14:11.568Z,441.00
2024-02-16T01:15:11.668Z,460.00
2024-02-16T01:16:11.680Z,442.00
2024-02-16T01:17:11.657Z,449.00
2024-02-16T01:18:11.789Z,448.00
2024-02-16T01:19:11.902Z,447.00
2024-02-16T01:20:12.468Z,448.00
2024-02-16T01:21:11.877Z,448.00
2024-02-16T01:22:11.860Z,447.00
2024-02-16T01:23:11.877Z,446.00
2024-02-16T01:24:12.128Z,443.00
2024-02-16T01:25:12.000Z,447.00
2024-02-16T01:26:12.055Z,450.00
2024-02-16T01:27:12.097Z,448.00
2024-02-16T01:28:12.140Z,450.00
2024-02-16T01:29:12.163Z,443.00
2024-02-16T01:30:12.496Z,442.00
2024-02-16T01:31:12.262Z,450.00
2024-02-16T01:32:12.339Z,451.00
2024-02-16T01:33:12.430Z,453.00
2024-02-16T01:34:12.519Z,460.00
2024-02-16T01:35:12.681Z,465.00
2024-02-16T01:36:12.533Z,464.00
2024-02-16T01:37:12.582Z,465.00
2024-02-16T01:38:12.537Z,466.00
2024-02-16T01:39:12.765Z,461.00
2024-02-16T01:40:12.864Z,460.00
2024-02-16T01:41:12.823Z,451.00
2024-02-16T01:42:12.834Z,444.00
2024-02-16T01:43:12.812Z,447.00
2024-02-16T01:44:12.831Z,450.00
2024-02-16T01:45:12.902Z,452.00
2024-02-16T01:46:12.936Z,467.00
2024-02-16T01:47:13.003Z,457.00
2024-02-16T01:48:13.216Z,455.00
2024-02-16T01:49:13.109Z,447.00
2024-02-16T01:50:13.110Z,448.00
2024-02-16T01:51:13.149Z,453.00
2024-02-16T01:52:13.132Z,453.00
2024-02-16T01:53:13.174Z,453.00
2024-02-16T01:54:13.271Z,452.00
2024-02-16T01:55:13.284Z,458.00
2024-02-16T01:56:13.249Z,456.00
2024-02-16T01:57:13.313Z,447.00
2024-02-16T01:58:13.272Z,442.00
2024-02-16T01:59:13.297Z,441.00
2024-02-16T02:00:13.346Z,446.00
2024-02-16T02:01:13.325Z,448.00
2024-02-16T02:02:13.289Z,449.00
2024-02-16T02:03:13.327Z,449.00
2024-02-16T02:04:13.316Z,451.00
2024-02-16T02:05:13.479Z,452.00
2024-02-16T02:06:13.478Z,452.00
2024-02-16T02:07:13.422Z,455.00
2024-02-16T02:08:13.347Z,453.00
2024-02-16T02:09:13.793Z,455.00
2024-02-16T02:10:13.418Z,458.00
2024-02-16T02:11:13.418Z,461.00
2024-02-16T02:12:13.514Z,465.00
2024-02-16T02:13:13.362Z,468.00
2024-02-16T02:14:13.429Z,474.00
2024-02-16T02:15:13.632Z,474.00
2024-02-16T02:16:13.632Z,474.00
2024-02-16T02:17:13.572Z,476.00
2024-02-16T02:18:14.686Z,476.00
2024-02-16T02:19:13.713Z,479.00
2024-02-16T02:20:13.809Z,474.00
2024-02-16T02:21:13.676Z,470.00
2024-02-16T02:22:13.721Z,467.00
2024-02-16T02:23:13.854Z,466.00
2024-02-16T02:24:13.889Z,466.00
2024-02-16T02:25:13.885Z,475.00
2024-02-16T02:26:13.900Z,467.00
2024-02-16T02:27:14.023Z,470.00
2024-02-16T02:28:13.996Z,447.00
2024-02-16T02:29:14.036Z,483.00
2024-02-16T02:30:14.242Z,458.00
2024-02-16T02:31:14.132Z,458.00
2024-02-16T02:32:14.239Z,457.00
2024-02-16T02:33:14.370Z,449.00
2024-02-16T02:34:14.332Z,447.00
2024-02-16T02:35:14.406Z,450.00
2024-02-16T02:36:14.526Z,451.00
2024-02-16T02:37:14.379Z,453.00
2024-02-16T02:38:14.461Z,448.00
2024-02-16T02:39:14.428Z,446.00
2024-02-16T02:40:15.025Z,446.00
2024-02-16T02:41:14.472Z,446.00
2024-02-16T02:42:14.570Z,451.00
2024-02-16T02:43:14.532Z,448.00
2024-02-16T02:44:14.535Z,451.00
2024-02-16T02:45:14.775Z,451.00
2024-02-16T02:46:14.655Z,453.00
2024-02-16T02:47:14.710Z,454.00
2024-02-16T02:48:14.976Z,453.00
2024-02-16T02:49:14.928Z,460.00
2024-02-16T02:50:14.883Z,465.00
2024-02-16T02:51:14.968Z,466.00
2024-02-16T02:52:15.051Z,462.00
2024-02-16T02:53:15.068Z,461.00
2024-02-16T02:54:15.145Z,461.00
2024-02-16T02:55:15.217Z,462.00
2024-02-16T02:56:15.211Z,462.00
2024-02-16T02:57:15.270Z,465.00
2024-02-16T02:58:15.258Z,464.00
2024-02-16T02:59:15.230Z,465.00
2024-02-16T03:00:15.484Z,465.00
2024-02-16T03:01:15.465Z,465.00
2024-02-16T03:02:15.495Z,467.00
2024-02-16T03:03:15.572Z,465.00
2024-02-16T03:04:15.625Z,464.00
2024-02-16T03:05:15.506Z,468.00
2024-02-16T03:06:15.615Z,473.00
2024-02-16T03:07:15.644Z,473.00
2024-02-16T03:08:15.717Z,475.00
2024-02-16T03:09:15.736Z,474.00
2024-02-16T03:10:15.594Z,475.00
2024-02-16T03:11:15.685Z,478.00
2024-02-16T03:12:15.809Z,476.00
2024-02-16T03:13:15.710Z,474.00
2024-02-16T03:14:15.758Z,476.00
2024-02-16T03:15:15.904Z,477.00
2024-02-16T03:16:15.856Z,475.00
2024-02-16T03:17:15.852Z,479.00
2024-02-16T03:18:16.085Z,480.00
2024-02-16T03:19:16.044Z,481.00
2024-02-16T03:20:16.064Z,481.00
2024-02-16T03:21:16.075Z,481.00
2024-02-16T03:22:16.124Z,481.00
2024-02-16T03:23:16.119Z,480.00
2024-02-16T03:24:16.147Z,482.00
2024-02-16T03:25:16.427Z,486.00
2024-02-16T03:26:16.327Z,483.00
2024-02-16T03:27:16.409Z,482.00
2024-02-16T03:28:16.376Z,481.00
2024-02-16T03:29:16.458Z,480.00
2024-02-16T03:30:16.536Z,476.00
2024-02-16T03:31:16.475Z,475.00
2024-02-16T03:32:16.546Z,471.00
2024-02-16T03:33:16.610Z,472.00
2024-02-16T03:34:16.923Z,471.00
2024-02-16T03:35:16.608Z,470.00
2024-02-16T03:36:16.758Z,469.00
2024-02-16T03:37:16.629Z,468.00
2024-02-16T03:38:16.627Z,468.00
2024-02-16T03:39:16.761Z,467.00
2024-02-16T03:40:16.719Z,468.00
2024-02-16T03:41:16.762Z,470.00
2024-02-16T03:42:16.883Z,470.00
2024-02-16T03:43:16.870Z,475.00
2024-02-16T03:44:16.883Z,474.00
2024-02-16T03:45:17.011Z,475.00
2024-02-16T03:46:16.920Z,476.00
2024-02-16T03:47:18.030Z,476.00
2024-02-16T03:48:17.251Z,474.00
2024-02-16T03:49:17.097Z,475.00
2024-02-16T03:50:16.926Z,473.00
2024-02-16T03:51:17.002Z,469.00
2024-02-16T03:52:16.920Z,469.00
2024-02-16T03:53:16.944Z,472.00
2024-02-16T03:54:17.041Z,471.00
2024-02-16T03:55:16.969Z,472.00
2024-02-16T03:56:16.947Z,473.00
2024-02-16T03:57:17.004Z,473.00
2024-02-16T03:58:16.982Z,472.00
2024-02-16T03:59:16.952Z,473.00
2024-02-16T04:00:17.074Z,473.00
2024-02-16T04:01:17.102Z,471.00
2024-02-16T04:02:16.918Z,470.00
2024-02-16T04:03:16.921Z,477.00
2024-02-16T04:04:16.981Z,477.00
2024-02-16T04:05:17.508Z,474.00
2024-02-16T04:06:17.045Z,475.00
2024-02-16T04:07:17.057Z,474.00
2024-02-16T04:08:17.037Z,477.00
2024-02-16T04:09:17.103Z,477.00
2024-02-16T04:10:17.187Z,477.00
2024-02-16T04:11:17.219Z,477.00
2024-02-16T04:12:17.185Z,476.00
2024-02-16T04:13:17.230Z,474.00
2024-02-16T04:14:17.246Z,472.00
2024-02-16T04:15:17.340Z,472.00
2024-02-16T04:16:17.298Z,472.00
2024-02-16T04:17:17.273Z,492.00
2024-02-16T04:18:17.390Z,476.00
2024-02-16T04:19:17.453Z,468.00
2024-02-16T04:20:17.425Z,470.00
2024-02-16T04:21:17.429Z,470.00
2024-02-16T04:22:17.462Z,480.00
2024-02-16T04:23:17.542Z,465.00
2024-02-16T04:24:17.619Z,464.00
2024-02-16T04:25:17.618Z,462.00
2024-02-16T04:26:17.648Z,458.00
2024-02-16T04:27:17.745Z,460.00
2024-02-16T04:28:17.734Z,460.00
2024-02-16T04:29:17.780Z,462.00
2024-02-16T04:30:17.860Z,472.00
2024-02-16T04:31:17.828Z,466.00
2024-02-16T04:32:17.839Z,469.00
2024-02-16T04:33:18.116Z,473.00
2024-02-16T04:34:18.059Z,471.00
2024-02-16T04:35:18.168Z,474.00
2024-02-16T04:36:18.028Z,475.00
2024-02-16T04:37:18.076Z,475.00
2024-02-16T04:38:18.088Z,479.00
2024-02-16T04:39:18.177Z,475.00
2024-02-16T04:40:18.221Z,480.00
2024-02-16T04:41:18.287Z,487.00
2024-02-16T04:42:18.331Z,496.00
2024-02-16T04:43:18.220Z,499.00
2024-02-16T04:44:18.299Z,495.00
2024-02-16T04:45:18.490Z,490.00
2024-02-16T04:46:18.340Z,486.00
2024-02-16T04:47:18.433Z,481.00
2024-02-16T04:48:18.559Z,477.00
2024-02-16T04:49:18.669Z,478.00
2024-02-16T04:50:18.518Z,479.00
2024-02-16T04:51:18.538Z,478.00
2024-02-16T04:52:18.563Z,483.00
2024-02-16T04:53:18.625Z,484.00
2024-02-16T04:54:18.672Z,482.00
2024-02-16T04:55:18.832Z,483.00
2024-02-16T04:56:18.780Z,483.00
2024-02-16T04:57:18.748Z,479.00
2024-02-16T04:58:18.757Z,477.00
2024-02-16T04:59:18.827Z,474.00
2024-02-16T05:00:18.957Z,475.00
2024-02-16T05:01:18.946Z,472.00
2024-02-16T05:02:26.466Z,468.00
2024-02-16T05:03:26.578Z,472.00
2024-02-16T05:04:26.506Z,474.00
2024-02-16T05:05:26.587Z,476.00
2024-02-16T05:06:26.662Z,480.00
2024-02-16T05:07:26.531Z,482.00
2024-02-16T05:08:26.562Z,484.00
2024-02-16T05:09:26.559Z,492.00
2024-02-16T05:10:26.660Z,495.00
2024-02-16T05:11:26.639Z,499.00
2024-02-16T05:12:26.582Z,500.00
2024-02-16T05:13:26.513Z,501.00
2024-02-16T05:14:26.600Z,505.00
2024-02-16T05:15:26.579Z,504.00
2024-02-16T05:16:26.528Z,505.00
2024-02-16T05:17:26.650Z,507.00
2024-02-16T05:18:26.695Z,507.00
2024-02-16T05:19:26.692Z,506.00
2024-02-16T05:20:26.657Z,506.00
2024-02-16T05:21:26.617Z,505.00
2024-02-16T05:22:26.606Z,506.00
2024-02-16T05:23:26.466Z,508.00
2024-02-16T05:24:26.538Z,507.00
2024-02-16T05:25:26.599Z,506.00
2024-02-16T05:26:26.510Z,508.00
2024-02-16T05:27:26.609Z,511.00
2024-02-16T05:28:26.525Z,510.00
2024-02-16T05:29:26.537Z,514.00
2024-02-16T05:30:26.693Z,515.00
2024-02-16T05:31:26.541Z,515.00
2024-02-16T05:32:26.595Z,517.00
2024-02-16T05:33:26.644Z,514.00
2024-02-16T05:34:26.671Z,517.00
2024-02-16T05:35:26.574Z,520.00
2024-02-16T05:36:26.602Z,518.00
2024-02-16T05:37:26.557Z,514.00
2024-02-16T05:38:26.627Z,513.00
2024-02-16T05:39:26.646Z,514.00
2024-02-16T05:40:26.630Z,515.00
2024-02-16T05:41:26.501Z,522.00
2024-02-16T05:42:26.558Z,513.00
2024-02-16T05:43:26.537Z,513.00
2024-02-16T05:44:26.631Z,507.00
2024-02-16T05:45:26.711Z,506.00
2024-02-16T05:46:26.539Z,513.00
2024-02-16T05:47:26.553Z,504.00
2024-02-16T05:48:26.628Z,506.00
2024-02-16T05:49:26.667Z,511.00
2024-02-16T05:50:26.768Z,512.00
2024-02-16T05:51:26.658Z,515.00
2024-02-16T05:52:26.784Z,512.00
2024-02-16T05:53:26.765Z,513.00
2024-02-16T05:54:26.812Z,515.00
2024-02-16T05:55:26.876Z,518.00
2024-02-16T05:56:26.920Z,516.00
2024-02-16T05:57:26.968Z,514.00
2024-02-16T05:58:26.920Z,510.00
2024-02-16T05:59:27.052Z,510.00
2024-02-16T06:00:27.600Z,510.00
2024-02-16T06:01:27.171Z,510.00
2024-02-16T06:02:27.160Z,510.00
2024-02-16T06:03:27.185Z,513.00
2024-02-16T06:04:27.321Z,513.00
2024-02-16T06:05:27.407Z,521.00
2024-02-16T06:06:27.424Z,518.00
2024-02-16T06:07:27.532Z,517.00
2024-02-16T06:08:30.617Z,518.00
2024-02-16T06:09:27.510Z,517.00
2024-02-16T06:10:27.454Z,515.00
2024-02-16T06:11:27.536Z,513.00
2024-02-16T06:12:27.489Z,511.00
2024-02-16T06:13:27.451Z,513.00
2024-02-16T06:14:27.457Z,508.00
2024-02-16T06:15:27.589Z,510.00
2024-02-16T06:16:27.485Z,511.00
2024-02-16T06:17:27.464Z,511.00
2024-02-16T06:18:27.571Z,515.00
2024-02-16T06:19:27.584Z,514.00
2024-02-16T06:20:27.503Z,514.00
2024-02-16T06:21:27.507Z,513.00
2024-02-16T06:22:27.461Z,513.00
2024-02-16T06:23:27.560Z,511.00
2024-02-16T06:24:27.530Z,510.00
2024-02-16T06:25:27.526Z,509.00
2024-02-16T06:26:27.522Z,508.00
2024-02-16T06:27:27.544Z,508.00
2024-02-16T06:28:27.425Z,512.00
2024-02-16T06:29:27.432Z,511.00
2024-02-16T06:30:27.593Z,511.00
2024-02-16T06:31:27.570Z,513.00
2024-02-16T06:32:27.590Z,513.00
2024-02-16T06:33:27.561Z,514.00
2024-02-16T06:34:27.588Z,513.00
2024-02-16T06:35:27.455Z,512.00
2024-02-16T06:36:27.575Z,513.00
2024-02-16T06:37:27.476Z,508.00
2024-02-16T06:38:27.508Z,507.00
2024-02-16T06:39:27.531Z,503.00
2024-02-16T06:40:27.573Z,500.00
2024-02-16T06:41:27.599Z,501.00
2024-02-16T06:42:27.591Z,502.00
2024-02-16T06:43:27.534Z,501.00
2024-02-16T06:44:27.539Z,500.00
2024-02-16T06:45:27.440Z,498.00
2024-02-16T06:46:27.623Z,498.00
2024-02-16T06:47:27.545Z,503.00
2024-02-16T06:48:27.611Z,508.00
2024-02-16T06:49:27.629Z,512.00
2024-02-16T06:50:27.544Z,514.00
2024-02-16T06:51:27.724Z,513.00
2024-02-16T06:52:27.504Z,513.00
2024-02-16T06:53:27.507Z,508.00
2024-02-16T06:54:27.556Z,510.00
2024-02-16T06:55:27.511Z,514.00
2024-02-16T06:56:27.574Z,517.00
2024-02-16T06:57:27.519Z,521.00
2024-02-16T06:58:27.569Z,522.00
2024-02-16T06:59:27.623Z,518.00
2024-02-16T07:00:27.658Z,519.00
2024-02-16T07:01:27.729Z,514.00
2024-02-16T07:02:27.674Z,514.00
2024-02-16T07:03:27.784Z,514.00
2024-02-16T07:04:27.850Z,513.00
2024-02-16T07:05:27.870Z,511.00
2024-02-16T07:06:28.072Z,511.00
2024-02-16T07:07:28.055Z,512.00
2024-02-16T07:08:28.002Z,510.00
2024-02-16T07:09:28.138Z,510.00
2024-02-16T07:10:28.068Z,508.00
2024-02-16T07:11:28.194Z,511.00
2024-02-16T07:12:28.212Z,512.00
2024-02-16T07:13:28.223Z,515.00
2024-02-16T07:14:28.240Z,518.00
2024-02-16T07:15:28.366Z,517.00
2024-02-16T07:16:28.313Z,518.00
2024-02-16T07:17:28.388Z,520.00
2024-02-16T07:18:28.636Z,519.00
2024-02-16T07:19:28.553Z,519.00
2024-02-16T07:20:28.511Z,524.00
2024-02-16T07:21:28.598Z,527.00
2024-02-16T07:22:28.511Z,528.00
2024-02-16T07:23:28.614Z,526.00
2024-02-16T07:24:28.726Z,527.00
2024-02-16T07:25:28.693Z,525.00
2024-02-16T07:26:29.164Z,527.00
2024-02-16T07:27:28.788Z,529.00
2024-02-16T07:28:28.774Z,530.00
2024-02-16T07:29:28.858Z,542.00
2024-02-16T07:30:36.875Z,569.00
2024-02-16T07:31:29.893Z,572.00
2024-02-16T07:32:28.896Z,496.00
2024-02-16T07:33:29.053Z,551.00
2024-02-16T07:34:28.973Z,520.00
2024-02-16T07:35:28.895Z,529.00
2024-02-16T07:36:28.953Z,534.00
2024-02-16T07:37:28.885Z,543.00
2024-02-16T07:38:28.858Z,602.00
2024-02-16T07:39:28.990Z,469.00
2024-02-16T07:40:28.835Z,619.00
2024-02-16T07:41:28.889Z,534.00
2024-02-16T07:42:28.995Z,524.00
2024-02-16T07:43:28.868Z,530.00
2024-02-16T07:44:28.876Z,539.00
2024-02-16T07:45:29.146Z,572.00
2024-02-16T07:46:28.915Z,558.00
2024-02-16T07:47:29.039Z,552.00
2024-02-16T07:48:29.123Z,547.00
2024-02-16T07:49:29.097Z,544.00
2024-02-16T07:50:29.113Z,548.00
2024-02-16T07:51:29.101Z,554.00
2024-02-16T07:52:29.148Z,541.00
2024-02-16T07:53:29.224Z,540.00
2024-02-16T07:54:29.256Z,541.00
2024-02-16T07:55:29.285Z,543.00
2024-02-16T07:56:29.414Z,541.00
2024-02-16T07:57:29.349Z,572.00
2024-02-16T07:58:29.353Z,502.00
2024-02-16T07:59:29.379Z,522.00
2024-02-16T08:00:29.459Z,503.00
2024-02-16T08:01:29.480Z,518.00
2024-02-16T08:02:29.462Z,526.00
2024-02-16T08:03:29.548Z,569.00
2024-02-16T08:04:29.547Z,515.00
2024-02-16T08:05:29.667Z,525.00
2024-02-16T08:06:29.943Z,530.00
2024-02-16T08:07:29.904Z,569.00
2024-02-16T08:08:29.636Z,583.00
2024-02-16T08:09:29.813Z,530.00
2024-02-16T08:10:29.757Z,514.00
2024-02-16T08:11:29.878Z,513.00
2024-02-16T08:12:29.841Z,515.00
2024-02-16T08:13:29.867Z,520.00
2024-02-16T08:14:29.944Z,523.00
2024-02-16T08:15:30.077Z,526.00
2024-02-16T08:16:30.021Z,529.00
2024-02-16T08:17:30.018Z,532.00
2024-02-16T08:18:30.210Z,531.00
2024-02-16T08:19:30.088Z,531.00
2024-02-16T08:20:30.078Z,534.00
2024-02-16T08:21:30.162Z,534.00
2024-02-16T08:22:30.102Z,535.00
2024-02-16T08:23:30.120Z,534.00
2024-02-16T08:24:30.206Z,533.00
2024-02-16T08:25:30.136Z,532.00
2024-02-16T08:26:30.144Z,544.00
2024-02-16T08:27:30.244Z,503.00
2024-02-16T08:28:30.073Z,521.00
2024-02-16T08:29:30.099Z,502.00
2024-02-16T08:30:30.295Z,503.00
2024-02-16T08:31:30.073Z,506.00
2024-02-16T08:32:30.111Z,517.00
2024-02-16T08:33:30.351Z,527.00
2024-02-16T08:34:30.276Z,555.00
2024-02-16T08:35:30.283Z,535.00
2024-02-16T08:36:30.374Z,525.00
2024-02-16T08:37:30.460Z,522.00
2024-02-16T08:38:30.519Z,493.00
2024-02-16T08:39:30.469Z,483.00
2024-02-16T08:40:30.429Z,481.00
2024-02-16T08:41:30.561Z,477.00
2024-02-16T08:42:30.595Z,499.00
2024-02-16T08:43:30.572Z,476.00
2024-02-16T08:44:30.553Z,478.00
2024-02-16T08:45:30.735Z,499.00
2024-02-16T08:46:30.915Z,483.00
2024-02-16T08:47:30.826Z,502.00
2024-02-16T08:48:30.959Z,514.00
2024-02-16T08:49:30.860Z,514.00
2024-02-16T08:50:30.804Z,514.00
2024-02-16T08:51:31.082Z,515.00
2024-02-16T08:52:30.918Z,586.00
2024-02-16T08:53:30.959Z,510.00
2024-02-16T08:54:31.096Z,503.00
2024-02-16T08:55:31.157Z,529.00
2024-02-16T08:56:31.667Z,510.00
2024-02-16T08:57:31.312Z,509.00
2024-02-16T08:58:31.261Z,514.00
2024-02-16T08:59:31.287Z,487.00
2024-02-16T09:00:31.507Z,505.00
2024-02-16T09:01:31.411Z,530.00
2024-02-16T09:02:31.415Z,459.00
2024-02-16T09:03:31.532Z,483.00
2024-02-16T09:04:31.457Z,486.00
2024-02-16T09:05:31.723Z,515.00
2024-02-16T09:06:31.823Z,512.00
2024-02-16T09:07:31.619Z,516.00
2024-02-16T09:08:31.640Z,513.00
2024-02-16T09:09:31.723Z,520.00
2024-02-16T09:10:31.805Z,549.00
2024-02-16T09:11:31.809Z,497.00
2024-02-16T09:12:31.808Z,521.00
2024-02-16T09:13:33.912Z,528.00
2024-02-16T09:14:31.651Z,557.00
2024-02-16T09:15:31.754Z,471.00
2024-02-16T09:16:31.716Z,493.00
2024-02-16T09:17:31.701Z,521.00
2024-02-16T09:18:31.769Z,488.00
2024-02-16T09:19:31.787Z,486.00
2024-02-16T09:20:32.106Z,494.00
2024-02-16T09:21:31.932Z,505.00
2024-02-16T09:23:31.697Z,547.00
2024-02-16T09:24:31.821Z,492.00
2024-02-16T09:25:31.662Z,485.00
2024-02-16T09:26:31.869Z,545.00
2024-02-16T09:27:31.732Z,501.00
2024-02-16T09:28:31.688Z,495.00
2024-02-16T09:29:31.660Z,494.00
2024-02-16T09:30:31.747Z,499.00
2024-02-16T09:31:31.696Z,538.00
2024-02-16T09:32:31.696Z,524.00
2024-02-16T09:33:31.852Z,521.00
2024-02-16T09:34:31.840Z,537.00
2024-02-16T09:35:31.726Z,482.00
2024-02-16T09:36:31.938Z,495.00
2024-02-16T09:37:31.702Z,498.00
2024-02-16T09:38:31.728Z,549.00
2024-02-16T09:39:31.740Z,474.00
2024-02-16T09:40:31.689Z,530.00
2024-02-16T09:41:31.760Z,490.00
2024-02-16T09:42:31.797Z,586.00
2024-02-16T09:43:31.709Z,486.00
2024-02-16T09:44:31.786Z,492.00
2024-02-16T09:45:31.793Z,486.00
2024-02-16T09:46:31.804Z,483.00
2024-02-16T09:47:31.800Z,494.00
2024-02-16T09:48:31.942Z,533.00
2024-02-16T09:49:38.985Z,477.00
2024-02-16T09:50:32.946Z,487.00
2024-02-16T09:51:31.887Z,499.00
2024-02-16T09:52:31.714Z,505.00
2024-02-16T09:53:31.794Z,499.00
2024-02-16T09:54:31.736Z,739.00
2024-02-16T09:55:31.718Z,474.00
2024-02-16T09:56:31.787Z,507.00
2024-02-16T09:57:31.890Z,433.00
2024-02-16T09:58:31.789Z,505.00
2024-02-16T09:59:31.781Z,520.00
2024-02-16T10:00:31.876Z,503.00
2024-02-16T10:01:31.822Z,472.00
2024-02-16T10:02:31.836Z,486.00
2024-02-16T10:03:31.885Z,545.00
2024-02-16T10:04:35.652Z,470.00
2024-02-16T10:05:32.878Z,524.00
2024-02-16T10:06:31.867Z,498.00
2024-02-16T10:07:31.915Z,495.00
2024-02-16T10:08:31.811Z,501.00
2024-02-16T10:09:31.933Z,546.00
2024-02-16T10:10:31.824Z,454.00
2024-02-16T10:11:32.050Z,484.00
2024-02-16T10:12:31.938Z,482.00
2024-02-16T10:13:31.860Z,483.00
2024-02-16T10:14:31.878Z,501.00
2024-02-16T10:15:31.893Z,476.00
2024-02-16T10:16:31.878Z,484.00
2024-02-16T10:17:31.970Z,488.00
2024-02-16T10:18:32.147Z,484.00
2024-02-16T10:19:31.991Z,513.00
2024-02-16T10:20:31.967Z,494.00
2024-02-16T10:21:32.349Z,491.00
2024-02-16T10:22:47.168Z,573.00
2024-02-16T10:24:32.052Z,488.00
2024-02-16T10:25:33.484Z,600.00
2024-02-16T10:26:32.075Z,556.00
2024-02-16T10:27:32.077Z,424.00
2024-02-16T10:28:31.965Z,456.00
2024-02-16T10:29:31.975Z,532.00
2024-02-16T10:30:32.058Z,510.00
2024-02-16T10:31:32.206Z,444.00
2024-02-16T10:32:32.025Z,476.00
2024-02-16T10:33:32.153Z,499.00
2024-02-16T10:34:32.086Z,506.00
2024-02-16T10:35:31.999Z,507.00
2024-02-16T10:36:32.156Z,528.00
2024-02-16T10:37:32.038Z,485.00
2024-02-16T10:38:32.036Z,452.00
2024-02-16T10:39:32.117Z,466.00
2024-02-16T10:40:32.073Z,605.00
2024-02-16T10:41:32.084Z,495.00
2024-02-16T10:42:32.096Z,474.00
2024-02-16T10:43:32.174Z,547.00
2024-02-16T10:44:32.055Z,436.00
2024-02-16T10:45:32.153Z,482.00
2024-02-16T10:46:32.068Z,409.00
2024-02-16T10:47:32.099Z,462.00
2024-02-16T10:48:32.192Z,481.00
2024-02-16T10:49:32.298Z,542.00
2024-02-16T10:50:32.186Z,437.00
2024-02-16T10:51:32.113Z,477.00
2024-02-16T10:52:32.113Z,544.00
2024-02-16T10:53:32.130Z,485.00
2024-02-16T10:54:32.073Z,497.00
2024-02-16T10:55:32.086Z,501.00
2024-02-16T10:56:32.165Z,500.00
2024-02-16T10:57:32.154Z,495.00
2024-02-16T10:58:32.074Z,495.00
2024-02-16T10:59:32.093Z,397.00
2024-02-16T11:00:32.406Z,446.00
2024-02-16T11:01:32.251Z,467.00
2024-02-16T11:02:32.336Z,473.00
2024-02-16T11:03:33.296Z,477.00
2024-02-16T11:04:32.390Z,481.00
2024-02-16T11:05:32.360Z,481.00
2024-02-16T11:06:32.498Z,499.00
2024-02-16T11:07:32.506Z,513.00
2024-02-16T11:08:32.458Z,479.00
2024-02-16T11:09:32.540Z,472.00
2024-02-16T11:10:33.662Z,503.00
2024-02-16T11:11:32.805Z,459.00
2024-02-16T11:12:32.732Z,453.00
2024-02-16T11:13:32.713Z,458.00
2024-02-16T11:14:32.761Z,522.00
2024-02-16T11:15:32.804Z,458.00
2024-02-16T11:16:32.903Z,444.00
2024-02-16T11:17:32.746Z,482.00
2024-02-16T11:18:33.153Z,454.00
2024-02-16T11:19:32.953Z,453.00
2024-02-16T11:20:32.959Z,459.00
2024-02-16T11:21:33.000Z,446.00
2024-02-16T11:22:32.987Z,464.00
2024-02-16T11:23:32.975Z,436.00
2024-02-16T11:24:33.058Z,435.00
2024-02-16T11:25:33.020Z,443.00
2024-02-16T11:26:33.125Z,451.00
2024-02-16T11:27:33.270Z,446.00
2024-02-16T11:28:33.143Z,447.00
2024-02-16T11:29:33.154Z,450.00
2024-02-16T11:30:33.243Z,449.00
2024-02-16T11:31:33.217Z,447.00
2024-02-16T11:32:33.505Z,417.00
2024-02-16T11:33:33.522Z,440.00
2024-02-16T11:34:33.460Z,432.00
2024-02-16T11:35:33.363Z,617.00
2024-02-16T11:36:33.586Z,386.00
2024-02-16T11:37:33.526Z,413.00
2024-02-16T11:38:33.501Z,446.00
2024-02-16T11:39:33.605Z,435.00
2024-02-16T11:40:33.591Z,443.00
2024-02-16T11:41:34.022Z,445.00
2024-02-16T11:42:33.674Z,470.00
2024-02-16T11:43:33.646Z,419.00
2024-02-16T11:44:33.640Z,430.00
2024-02-16T11:45:33.735Z,469.00
2024-02-16T11:46:33.782Z,437.00
2024-02-16T11:47:33.823Z,452.00
2024-02-16T11:48:33.996Z,460.00
2024-02-16T11:49:33.926Z,432.00
2024-02-16T11:50:33.777Z,433.00
2024-02-16T11:51:34.083Z,461.00
2024-02-16T11:52:33.973Z,396.00
2024-02-16T11:53:34.025Z,425.00
2024-02-16T11:54:34.156Z,511.00
2024-02-16T11:55:34.144Z,392.00
2024-02-16T11:56:34.142Z,441.00
2024-02-16T11:57:34.402Z,452.00
2024-02-16T11:58:34.269Z,468.00
2024-02-16T11:59:34.322Z,369.00
2024-02-16T12:00:34.477Z,459.00
2024-02-16T12:01:34.553Z,497.00
2024-02-16T12:02:34.394Z,405.00
2024-02-16T12:03:34.546Z,425.00
2024-02-16T12:04:39.510Z,356.00
2024-02-16T12:05:35.536Z,407.00
2024-02-16T12:06:34.744Z,460.00
2024-02-16T12:07:34.715Z,463.00
2024-02-16T12:08:34.520Z,411.00
2024-02-16T12:09:34.713Z,430.00
2024-02-16T12:10:34.566Z,435.00
2024-02-16T12:11:34.668Z,448.00
2024-02-16T12:12:34.884Z,430.00
2024-02-16T12:13:34.541Z,433.00
2024-02-16T12:14:34.589Z,436.00
2024-02-16T12:15:34.617Z,438.00
2024-02-16T12:16:34.577Z,438.00
2024-02-16T12:17:34.585Z,471.00
2024-02-16T12:18:34.713Z,464.00
2024-02-16T12:19:34.601Z,404.00
2024-02-16T12:20:34.622Z,409.00
2024-02-16T12:21:34.655Z,463.00
2024-02-16T12:22:34.644Z,452.00
2024-02-16T12:23:34.715Z,454.00
2024-02-16T12:24:34.731Z,393.00
2024-02-16T12:25:34.750Z,415.00
2024-02-16T12:26:34.859Z,524.00
2024-02-16T12:27:35.010Z,371.00
2024-02-16T12:28:34.891Z,442.00
2024-02-16T12:29:34.967Z,417.00
2024-02-16T12:30:35.152Z,421.00